Time;durP1;ratioP1;P1;durP2;ratioP2;P2;SDS_P1;SDS_P2;PMS_P1;PMS_P2;Temp;Humidity;BMP_temperature;BMP_pressure;BME280_temperature;BME280_humidity;BME280_pressure;Samples;Min_cycle;Max_cycle;Signal;HPM_P1;HPM_P2
2021/03/01 00:02:29;;;;;;;2.65;1.67;;;17.70;61.30;;;;;;10621747;27;20035;-57
2021/03/01 00:07:30;;;;;;;2.40;1.42;;;17.70;61.20;;;;;;10622872;27;20106;-57
2021/03/01 00:12:31;;;;;;;2.45;1.50;;;17.70;61.20;;;;;;10620042;28;20154;-57
2021/03/01 00:17:33;;;;;;;3.72;1.65;;;17.70;61.20;;;;;;10614025;28;20169;-58
2021/03/01 00:22:34;;;;;;;2.92;1.75;;;17.70;61.10;;;;;;10623199;28;20039;-57
2021/03/01 00:27:36;;;;;;;2.25;1.73;;;17.70;61.10;;;;;;10611216;28;20047;-57
2021/03/01 00:32:37;;;;;;;2.38;1.75;;;17.70;61.00;;;;;;10604712;28;20078;-57
2021/03/01 00:37:38;;;;;;;4.15;2.33;;;17.70;61.00;;;;;;10562245;28;20110;-57
2021/03/01 00:42:39;;;;;;;3.40;1.63;;;17.70;61.00;;;;;;10607476;28;20105;-57
2021/03/01 00:47:40;;;;;;;2.58;1.27;;;17.70;60.90;;;;;;10620204;28;20039;-57
2021/03/01 00:52:41;;;;;;;3.20;1.70;;;17.70;61.50;;;;;;10587690;28;20107;-56
2021/03/01 00:57:41;;;;;;;1.58;1.08;;;17.70;60.80;;;;;;10579382;28;20034;-55
2021/03/01 01:02:43;;;;;;;3.38;1.52;;;17.70;61.40;;;;;;10609699;27;20110;-56
2021/03/01 01:07:44;;;;;;;2.97;1.40;;;17.70;60.80;;;;;;10621996;27;20122;-57
2021/03/01 01:12:44;;;;;;;2.35;1.50;;;17.70;60.70;;;;;;10612234;27;20379;-58
2021/03/01 01:17:45;;;;;;;2.60;1.40;;;17.70;60.70;;;;;;10627575;27;20034;-57
2021/03/01 01:22:46;;;;;;;2.72;1.50;;;17.70;61.20;;;;;;10604058;27;20110;-57
2021/03/01 01:27:47;;;;;;;2.88;1.50;;;17.70;60.60;;;;;;10600471;27;20050;-57
2021/03/01 01:32:48;;;;;;;2.65;1.55;;;17.70;60.60;;;;;;10589898;27;20032;-57
2021/03/01 01:37:49;;;;;;;1.95;1.33;;;17.70;60.50;;;;;;10586481;28;20066;-57
2021/03/01 01:49:05;;;;;;;2.65;1.42;;;17.70;60.50;;;;;;10591927;27;20051;-58
2021/03/01 01:54:06;;;;;;;2.35;1.40;;;17.70;60.50;;;;;;10596465;27;20023;-57
2021/03/01 01:59:07;;;;;;;2.35;1.23;;;17.70;60.50;;;;;;10599841;27;20394;-57
2021/03/01 02:04:21;;;;;;;2.60;1.52;;;17.70;60.40;;;;;;10624737;27;20075;-57
2021/03/01 02:09:31;;;;;;;2.28;1.55;;;17.70;60.30;;;;;;10627173;27;20431;-55
2021/03/01 02:14:42;;;;;;;2.70;1.80;;;17.70;60.30;;;;;;10606321;27;20494;-57
2021/03/01 02:19:42;;;;;;;2.50;1.70;;;17.70;60.30;;;;;;10609559;27;20041;-56
2021/03/01 02:24:54;;;;;;;3.22;1.73;;;17.70;60.30;;;;;;10582932;27;20138;-58
2021/03/01 02:30:17;;;;;;;5.28;1.90;;;17.70;60.20;;;;;;10588654;27;20039;-57
2021/03/01 02:35:20;;;;;;;3.58;1.98;;;17.70;60.30;;;;;;10585761;27;20084;-57
2021/03/01 02:40:22;;;;;;;2.28;1.50;;;17.70;60.20;;;;;;10565941;28;20020;-56
2021/03/01 02:45:23;;;;;;;2.25;1.30;;;17.70;60.10;;;;;;10583679;28;20031;-57
2021/03/01 02:50:24;;;;;;;2.45;1.25;;;17.70;60.20;;;;;;10586282;27;20030;-57
2021/03/01 02:55:26;;;;;;;2.38;1.50;;;17.70;60.10;;;;;;10565316;28;20356;-57
2021/03/01 03:00:27;;;;;;;3.55;1.83;;;17.70;60.10;;;;;;10588698;27;20043;-57
2021/03/01 03:05:28;;;;;;;3.20;1.92;;;17.70;60.10;;;;;;10573632;28;20028;-57
2021/03/01 03:10:30;;;;;;;2.80;1.77;;;17.70;59.90;;;;;;10583155;27;20035;-57
2021/03/01 03:15:33;;;;;;;2.65;1.50;;;17.70;59.90;;;;;;10607005;27;20034;-57
2021/03/01 03:20:33;;;;;;;3.53;2.00;;;17.70;59.90;;;;;;10624034;27;20551;-57
2021/03/01 03:25:35;;;;;;;2.53;1.55;;;17.70;59.90;;;;;;10590129;27;20108;-57
2021/03/01 03:30:36;;;;;;;3.17;1.80;;;17.70;59.80;;;;;;10604773;27;20023;-57
2021/03/01 03:35:37;;;;;;;2.70;1.58;;;17.70;59.80;;;;;;10587699;27;20034;-57
2021/03/01 03:40:41;;;;;;;3.45;1.95;;;17.70;59.80;;;;;;10623590;27;20042;-57
2021/03/01 03:45:44;;;;;;;2.38;1.60;;;17.70;59.80;;;;;;10606463;27;20079;-57
2021/03/01 03:50:53;;;;;;;2.42;1.48;;;17.70;59.80;;;;;;10600350;27;20479;-57
2021/03/01 03:56:00;;;;;;;3.05;1.60;;;17.70;59.70;;;;;;10600122;27;20042;-57
2021/03/01 04:01:04;;;;;;;2.78;1.58;;;17.70;59.70;;;;;;10613324;27;20038;-57
2021/03/01 04:06:05;;;;;;;2.47;1.77;;;17.70;59.70;;;;;;10567323;28;20027;-58
2021/03/01 04:11:08;;;;;;;3.50;1.98;;;17.70;59.70;;;;;;10566563;28;20474;-57
2021/03/01 04:16:10;;;;;;;3.33;1.92;;;17.70;59.60;;;;;;10562870;28;20024;-57
2021/03/01 04:21:12;;;;;;;2.60;1.58;;;17.70;59.60;;;;;;10579854;28;20468;-56
2021/03/01 04:26:13;;;;;;;3.17;1.73;;;17.70;59.50;;;;;;10582550;28;20097;-57
2021/03/01 04:31:15;;;;;;;3.17;1.98;;;17.70;59.50;;;;;;10587184;28;20067;-57
2021/03/01 04:36:16;;;;;;;3.65;2.13;;;17.70;59.60;;;;;;10583923;28;20043;-57
2021/03/01 04:41:18;;;;;;;2.80;1.73;;;17.70;59.50;;;;;;10602017;27;20063;-57
2021/03/01 04:46:19;;;;;;;3.20;2.10;;;17.70;59.50;;;;;;10625560;27;20027;-58
2021/03/01 04:51:25;;;;;;;4.05;2.10;;;17.70;59.50;;;;;;10602143;27;20036;-57
2021/03/01 04:56:26;;;;;;;2.80;1.85;;;17.70;59.40;;;;;;10570567;28;20460;-57
2021/03/01 05:01:28;;;;;;;2.75;1.90;;;17.70;59.50;;;;;;10602476;27;20436;-57
2021/03/01 05:06:28;;;;;;;3.50;1.75;;;17.70;59.40;;;;;;10588400;27;20023;-57
2021/03/01 05:11:36;;;;;;;2.97;1.83;;;17.70;59.30;;;;;;10602020;27;20110;-58
2021/03/01 05:16:37;;;;;;;3.38;2.22;;;17.70;59.20;;;;;;10629536;27;20043;-57
2021/03/01 05:21:37;;;;;;;2.35;1.50;;;17.70;59.30;;;;;;10578001;28;20028;-56
2021/03/01 05:26:38;;;;;;;2.45;1.48;;;17.70;59.30;;;;;;10586369;28;20058;-57
2021/03/01 05:31:39;;;;;;;2.90;1.65;;;17.70;59.20;;;;;;10592721;27;20460;-57
2021/03/01 05:36:41;;;;;;;1.88;1.38;;;17.70;59.20;;;;;;10568592;28;20024;-57
2021/03/01 05:41:46;;;;;;;5.72;2.10;;;17.80;59.10;;;;;;10618675;27;20110;-57
2021/03/01 05:46:49;;;;;;;2.58;1.60;;;17.70;59.80;;;;;;10625032;27;20072;-57
2021/03/01 05:51:51;;;;;;;2.88;1.85;;;17.70;59.10;;;;;;10613568;27;20114;-57
2021/03/01 05:56:52;;;;;;;2.97;1.88;;;17.70;59.10;;;;;;10586059;28;20391;-57
2021/03/01 06:01:53;;;;;;;3.00;1.80;;;17.70;59.00;;;;;;10586949;27;20034;-57
2021/03/01 06:06:55;;;;;;;3.03;1.77;;;17.70;58.90;;;;;;10567135;28;20490;-58
2021/03/01 06:11:55;;;;;;;2.80;1.70;;;17.70;58.90;;;;;;10600461;27;20024;-57
2021/03/01 06:17:18;;;;;;;2.97;1.75;;;17.70;58.80;;;;;;10625915;27;20436;-58
2021/03/01 06:22:42;;;;;;;4.35;2.10;;;17.70;58.80;;;;;;10603668;27;20038;-56
2021/03/01 06:28:01;;;;;;;6.13;2.28;;;17.70;59.00;;;;;;10599360;27;20215;-58
2021/03/01 06:33:16;;;;;;;8.82;3.10;;;17.70;59.60;;;;;;10609065;27;20046;-58
2021/03/01 06:38:25;;;;;;;7.25;3.00;;;17.70;60.40;;;;;;10623530;27;20390;-58
2021/03/01 06:43:26;;;;;;;8.03;2.93;;;17.70;60.60;;;;;;10625246;27;20479;-58
2021/03/01 06:48:29;;;;;;;9.07;2.72;;;17.70;60.70;;;;;;10613075;27;20079;-60
2021/03/01 06:53:30;;;;;;;10.02;3.15;;;17.70;61.70;;;;;;10581875;27;20130;-57
2021/03/01 06:58:43;;;;;;;7.78;2.53;;;17.70;61.40;;;;;;10584731;27;20031;-56
2021/03/01 07:03:49;;;;;;;12.57;3.15;;;17.70;61.20;;;;;;10600527;27;20040;-57
2021/03/01 07:08:53;;;;;;;16.73;3.13;;;17.70;61.20;;;;;;10599390;27;20107;-58
2021/03/01 07:14:16;;;;;;;12.82;2.95;;;17.70;60.90;;;;;;10589640;27;20076;-57
2021/03/01 07:19:38;;;;;;;14.63;4.00;;;17.60;60.80;;;;;;10623550;27;20027;-57
2021/03/01 07:24:40;;;;;;;10.68;3.42;;;17.60;60.60;;;;;;10588671;27;20413;-57
2021/03/01 07:29:45;;;;;;;5.05;2.20;;;17.60;60.40;;;;;;10561178;28;20413;-57
2021/03/01 07:34:49;;;;;;;13.88;3.33;;;17.60;60.30;;;;;;10547014;28;20024;-56
2021/03/01 07:39:49;;;;;;;11.18;3.25;;;17.60;60.30;;;;;;10561037;28;20062;-55
2021/03/01 07:44:54;;;;;;;6.95;3.03;;;17.60;60.20;;;;;;10562834;28;20383;-57
2021/03/01 07:49:55;;;;;;;10.38;2.75;;;17.60;60.10;;;;;;10563032;28;20051;-57
2021/03/01 07:55:05;;;;;;;7.72;3.03;;;17.60;60.00;;;;;;10607368;27;20031;-58
2021/03/01 08:00:29;;;;;;;6.90;2.88;;;17.60;60.00;;;;;;10605038;27;20038;-58
2021/03/01 08:05:32;;;;;;;7.18;2.58;;;17.50;59.80;;;;;;10623422;27;20054;-57
2021/03/01 08:10:32;;;;;;;7.50;3.72;;;17.60;59.70;;;;;;10622496;27;20106;-57
2021/03/01 08:15:37;;;;;;;7.80;2.65;;;17.60;59.60;;;;;;10623101;28;20102;-57
2021/03/01 08:20:41;;;;;;;6.03;3.08;;;17.60;59.60;;;;;;10623067;28;20102;-57
2021/03/01 08:25:45;;;;;;;6.47;2.80;;;17.70;59.60;;;;;;10579443;28;20590;-57
2021/03/01 08:30:47;;;;;;;7.25;2.67;;;17.60;59.60;;;;;;10582449;28;20027;-56
2021/03/01 08:35:53;;;;;;;5.30;2.35;;;17.60;59.60;;;;;;10580579;28;20028;-57
2021/03/01 08:40:56;;;;;;;4.82;2.55;;;17.60;59.70;;;;;;10580005;28;20396;-57
2021/03/01 08:45:57;;;;;;;4.38;2.58;;;17.60;59.60;;;;;;10579909;28;20036;-57
2021/03/01 08:50:58;;;;;;;7.28;2.92;;;17.60;59.60;;;;;;10561844;28;20479;-56
2021/03/01 08:55:59;;;;;;;5.38;2.20;;;17.60;59.60;;;;;;10615086;28;20110;-57
2021/03/01 09:01:05;;;;;;;3.75;2.10;;;17.60;59.60;;;;;;10603390;28;20026;-55
2021/03/01 09:06:21;;;;;;;4.72;2.17;;;17.60;59.60;;;;;;10622443;28;20387;-57
2021/03/01 09:11:30;;;;;;;5.57;2.40;;;17.60;59.50;;;;;;10621900;28;20027;-56
2021/03/01 09:16:34;;;;;;;7.53;3.38;;;17.60;59.50;;;;;;10622066;28;20387;-57
2021/03/01 09:21:40;;;;;;;6.03;3.10;;;17.60;59.50;;;;;;10623949;27;20034;-57
2021/03/01 09:26:45;;;;;;;3.47;2.22;;;17.60;59.50;;;;;;10577087;28;20044;-56
2021/03/01 09:31:50;;;;;;;4.93;2.20;;;17.70;59.50;;;;;;10588689;27;20047;-57
2021/03/01 09:36:51;;;;;;;4.43;2.13;;;17.60;59.40;;;;;;10624167;27;20019;-55
2021/03/01 09:41:54;;;;;;;5.18;2.45;;;17.60;59.50;;;;;;10610516;27;20527;-57
2021/03/01 09:46:57;;;;;;;4.28;1.95;;;17.60;59.60;;;;;;10628627;27;20023;-56
2021/03/01 09:51:58;;;;;;;3.70;2.25;;;17.60;59.60;;;;;;10613445;27;20145;-57
2021/03/01 09:57:07;;;;;;;4.18;2.28;;;17.60;59.60;;;;;;10587815;27;20047;-58
2021/03/01 10:02:20;;;;;;;4.77;2.57;;;17.60;59.50;;;;;;10585560;27;20035;-57
2021/03/01 10:07:26;;;;;;;2.97;1.77;;;17.60;59.50;;;;;;10587649;27;20349;-56
2021/03/01 10:12:27;;;;;;;8.27;2.47;;;17.60;59.60;;;;;;10591819;27;20031;-57
2021/03/01 10:17:30;;;;;;;7.13;2.78;;;17.60;59.70;;;;;;10627553;27;20490;-57
2021/03/01 10:22:31;;;;;;;7.03;2.42;;;17.60;59.90;;;;;;10627475;27;20099;-57
2021/03/01 10:27:36;;;;;;;5.57;3.00;;;17.60;60.00;;;;;;10567487;28;20458;-57
2021/03/01 10:32:37;;;;;;;6.93;2.13;;;17.60;60.20;;;;;;10593326;27;20419;-57
2021/03/01 10:37:37;;;;;;;11.20;3.25;;;17.60;60.50;;;;;;10593849;27;20111;-57
2021/03/01 10:42:38;;;;;;;12.20;2.60;;;17.50;60.50;;;;;;10584186;28;20102;-57
2021/03/01 10:47:39;;;;;;;7.45;2.83;;;17.50;60.50;;;;;;10583126;28;20036;-57
2021/03/01 10:52:40;;;;;;;9.90;3.28;;;17.50;60.10;;;;;;10568952;27;20381;-58
2021/03/01 10:57:40;;;;;;;7.85;3.85;;;17.50;60.00;;;;;;10599734;27;20088;-57
2021/03/01 11:02:41;;;;;;;15.27;3.88;;;17.50;59.90;;;;;;10583451;27;20059;-57
2021/03/01 11:07:42;;;;;;;14.23;3.60;;;17.50;60.10;;;;;;10602783;27;20036;-56
2021/03/01 11:12:42;;;;;;;12.27;4.35;;;17.50;60.10;;;;;;10597599;27;20063;-57
2021/03/01 11:17:43;;;;;;;8.45;2.95;;;17.50;60.20;;;;;;10609991;27;20095;-57
2021/03/01 11:22:44;;;;;;;8.65;2.97;;;17.50;60.30;;;;;;10624269;27;20034;-57
2021/03/01 11:27:45;;;;;;;8.50;3.75;;;17.50;60.40;;;;;;10563775;28;20043;-56
2021/03/01 11:32:45;;;;;;;8.45;3.67;;;17.50;60.40;;;;;;10565648;27;20062;-56
2021/03/01 11:37:46;;;;;;;9.00;2.72;;;17.50;60.60;;;;;;10581724;28;20038;-58
2021/03/01 11:42:46;;;;;;;8.45;2.97;;;17.50;61.30;;;;;;10591830;27;20059;-57
2021/03/01 11:47:47;;;;;;;12.35;5.35;;;17.40;60.80;;;;;;10599143;27;20031;-57
2021/03/01 11:52:48;;;;;;;11.18;5.55;;;17.50;59.90;;;;;;10601468;27;20446;-56
2021/03/01 11:57:49;;;;;;;7.53;4.75;;;17.50;60.30;;;;;;10562849;28;20498;-57
2021/03/01 12:02:49;;;;;;;6.25;3.92;;;17.50;60.50;;;;;;10581143;28;20480;-57
2021/03/01 12:07:50;;;;;;;9.23;4.65;;;17.60;60.70;;;;;;10581162;28;20032;-57
2021/03/01 12:12:51;;;;;;;9.90;4.40;;;17.60;60.90;;;;;;10581035;28;20024;-57
2021/03/01 12:17:51;;;;;;;8.55;3.78;;;17.60;60.90;;;;;;10562635;28;20052;-56
2021/03/01 12:22:52;;;;;;;10.55;5.88;;;17.60;60.80;;;;;;10562570;28;20034;-57
2021/03/01 12:27:53;;;;;;;8.65;3.58;;;17.60;61.10;;;;;;10562227;28;20452;-57
2021/03/01 12:32:54;;;;;;;9.57;2.85;;;17.50;61.20;;;;;;10583121;28;20071;-57
2021/03/01 12:37:54;;;;;;;13.27;4.18;;;17.50;61.10;;;;;;10562382;28;20054;-55
2021/03/01 12:42:55;;;;;;;12.90;4.38;;;17.50;61.30;;;;;;10562379;28;20031;-57
2021/03/01 12:47:56;;;;;;;11.63;3.08;;;17.60;61.30;;;;;;10580007;28;20031;-57
2021/03/01 12:52:57;;;;;;;11.98;3.90;;;17.60;61.20;;;;;;10588704;28;20031;-57
2021/03/01 12:57:58;;;;;;;8.43;3.67;;;17.60;61.30;;;;;;10626979;27;20049;-57
2021/03/01 13:02:59;;;;;;;5.20;3.17;;;17.60;61.30;;;;;;10630318;27;20042;-57
2021/03/01 13:08:00;;;;;;;6.57;2.88;;;17.60;61.40;;;;;;10630322;27;20031;-57
2021/03/01 13:13:01;;;;;;;6.28;2.92;;;17.70;61.50;;;;;;10630081;27;20065;-57
2021/03/01 13:18:02;;;;;;;5.88;2.80;;;17.70;61.50;;;;;;10629852;27;20027;-56
2021/03/01 13:23:04;;;;;;;7.18;3.15;;;17.70;61.50;;;;;;10622418;27;20376;-56
2021/03/01 13:28:05;;;;;;;8.32;2.90;;;17.70;61.50;;;;;;10629243;27;20129;-56
2021/03/01 13:33:05;;;;;;;15.07;3.67;;;17.70;61.50;;;;;;10607253;27;20127;-57
2021/03/01 13:38:06;;;;;;;11.05;3.10;;;17.70;61.80;;;;;;10589673;27;20428;-57
2021/03/01 13:43:07;;;;;;;11.25;3.20;;;17.80;62.20;;;;;;10600551;27;20479;-57
2021/03/01 13:48:08;;;;;;;10.48;3.03;;;17.80;62.70;;;;;;10628807;27;20030;-57
2021/03/01 13:53:08;;;;;;;10.55;3.25;;;17.90;63.10;;;;;;10603665;27;20364;-57
2021/03/01 13:58:09;;;;;;;8.48;3.58;;;17.90;63.20;;;;;;10593819;27;20067;-58
2021/03/01 14:03:10;;;;;;;9.23;3.10;;;17.90;63.10;;;;;;10583405;27;20023;-57
2021/03/01 14:08:11;;;;;;;8.05;2.97;;;17.90;63.00;;;;;;10613181;27;20059;-56
2021/03/01 14:13:11;;;;;;;10.05;3.33;;;17.90;62.80;;;;;;10626775;27;20148;-55
2021/03/01 14:18:12;;;;;;;14.57;3.40;;;17.90;62.80;;;;;;10627468;27;20068;-55
2021/03/01 14:23:13;;;;;;;9.43;3.38;;;17.90;62.60;;;;;;10627320;27;20054;-56
2021/03/01 14:28:13;;;;;;;9.93;3.33;;;17.90;62.40;;;;;;10626416;27;20051;-56
2021/03/01 14:33:17;;;;;;;6.45;2.92;;;17.90;62.40;;;;;;10603360;27;20023;-56
2021/03/01 14:38:17;;;;;;;5.68;3.13;;;17.90;62.30;;;;;;10584064;28;20027;-55
2021/03/01 14:43:18;;;;;;;6.07;2.65;;;17.90;62.40;;;;;;10565703;28;20035;-56
2021/03/01 14:48:19;;;;;;;11.32;3.50;;;17.90;62.30;;;;;;10583473;28;20031;-55
2021/03/01 14:53:20;;;;;;;5.43;3.05;;;17.90;63.00;;;;;;10583376;28;20080;-56
2021/03/01 14:58:21;;;;;;;8.75;2.72;;;17.90;62.30;;;;;;10610799;27;20019;-56
2021/03/01 15:03:21;;;;;;;7.68;2.75;;;17.90;62.30;;;;;;10582875;28;20031;-54
2021/03/01 15:08:25;;;;;;;13.73;3.13;;;17.90;62.20;;;;;;10601653;27;20062;-56
2021/03/01 15:13:30;;;;;;;13.25;3.72;;;17.80;63.50;;;;;;10598600;27;20027;-55
2021/03/01 15:18:31;;;;;;;10.30;3.15;;;17.90;63.10;;;;;;10581573;28;20028;-56
2021/03/01 15:23:32;;;;;;;14.77;3.45;;;17.90;63.10;;;;;;10582088;28;20399;-54
2021/03/01 15:28:33;;;;;;;10.60;3.42;;;17.80;63.10;;;;;;10565540;27;20499;-54
2021/03/01 15:33:34;;;;;;;17.65;4.07;;;17.80;63.10;;;;;;10624394;27;20098;-54
2021/03/01 15:38:36;;;;;;;9.73;2.83;;;17.80;63.00;;;;;;10624552;27;20675;-53
2021/03/01 15:43:36;;;;;;;9.65;3.05;;;17.70;63.20;;;;;;10624457;27;20023;-54
2021/03/01 15:48:37;;;;;;;10.88;3.60;;;17.70;63.30;;;;;;10623711;27;20027;-54
2021/03/01 15:53:38;;;;;;;14.57;3.53;;;17.70;63.60;;;;;;10623624;27;20473;-55
2021/03/01 15:58:40;;;;;;;9.73;3.60;;;17.70;63.80;;;;;;10589583;27;20035;-56
2021/03/01 16:03:41;;;;;;;15.40;4.47;;;17.60;63.70;;;;;;10586959;27;20027;-55
2021/03/01 16:08:41;;;;;;;17.25;5.03;;;17.60;64.00;;;;;;10580913;28;20035;-54
2021/03/01 16:13:42;;;;;;;11.85;4.68;;;17.70;66.80;;;;;;10580409;28;20055;-55
2021/03/01 16:18:42;;;;;;;19.60;4.57;;;17.70;66.20;;;;;;10580633;28;20514;-55
2021/03/01 16:23:43;;;;;;;11.80;4.15;;;17.70;66.20;;;;;;10580328;28;20035;-55
2021/03/01 16:28:45;;;;;;;10.02;4.55;;;17.60;64.60;;;;;;10597592;28;20130;-54
2021/03/01 16:33:45;;;;;;;13.50;3.40;;;17.60;65.70;;;;;;10602060;27;20084;-54
2021/03/01 16:38:47;;;;;;;15.25;4.00;;;17.60;65.20;;;;;;10595617;27;20051;-54
2021/03/01 16:43:48;;;;;;;17.52;4.53;;;17.50;64.90;;;;;;10603060;27;20031;-55
2021/03/01 16:48:49;;;;;;;14.30;3.97;;;17.50;65.00;;;;;;10602218;27;20382;-55
2021/03/01 16:53:50;;;;;;;15.98;4.90;;;17.50;64.60;;;;;;10607312;27;20027;-55
2021/03/01 16:58:56;;;;;;;7.35;3.33;;;17.40;65.60;;;;;;10613592;27;20051;-55
2021/03/01 17:03:58;;;;;;;14.52;4.07;;;17.40;63.60;;;;;;10624041;27;20437;-55
2021/03/01 17:09:09;;;;;;;9.60;4.03;;;17.50;65.00;;;;;;10599313;27;20352;-55
2021/03/01 17:14:13;;;;;;;13.07;4.38;;;17.50;67.90;;;;;;10587730;28;20036;-56
2021/03/01 17:19:18;;;;;;;10.30;4.32;;;17.60;67.30;;;;;;10599992;27;20098;-55
2021/03/01 17:24:34;;;;;;;5.63;3.10;;;17.70;67.20;;;;;;10629885;27;20027;-55
2021/03/01 17:29:37;;;;;;;10.20;4.30;;;17.70;66.80;;;;;;10595190;27;20040;-55
2021/03/01 17:34:38;;;;;;;13.55;4.80;;;17.60;66.70;;;;;;10587042;28;20019;-55
2021/03/01 17:39:39;;;;;;;13.15;5.05;;;17.60;66.20;;;;;;10602421;27;20023;-54
2021/03/01 17:44:42;;;;;;;11.25;5.20;;;17.60;66.60;;;;;;10599301;27;20452;-53
2021/03/01 17:49:56;;;;;;;7.00;4.57;;;17.70;66.30;;;;;;10599453;27;20043;-54
2021/03/01 17:55:18;;;;;;;14.98;5.47;;;17.70;66.90;;;;;;10567932;27;20051;-56
2021/03/01 18:00:19;;;;;;;10.75;4.35;;;17.70;66.40;;;;;;10616225;27;20046;-56
2021/03/01 18:05:20;;;;;;;12.70;4.93;;;17.60;66.20;;;;;;10581909;27;20475;-56
2021/03/01 18:10:23;;;;;;;9.27;4.22;;;17.60;66.70;;;;;;10567504;27;20106;-55
2021/03/01 18:15:25;;;;;;;12.38;4.70;;;17.50;66.50;;;;;;10600293;27;20349;-54
2021/03/01 18:20:27;;;;;;;12.15;5.35;;;17.50;66.50;;;;;;10594373;27;20042;-52
2021/03/01 18:25:28;;;;;;;8.77;5.47;;;17.50;66.30;;;;;;10581484;27;20036;-56
2021/03/01 18:30:29;;;;;;;9.45;4.80;;;17.50;66.50;;;;;;10591242;27;20032;-54
2021/03/01 18:35:41;;;;;;;10.68;4.43;;;17.50;66.60;;;;;;10611209;27;20024;-55
2021/03/01 18:40:50;;;;;;;12.27;4.15;;;17.50;66.50;;;;;;10560273;27;20035;-55
2021/03/01 18:46:03;;;;;;;9.85;4.10;;;17.50;66.50;;;;;;10588961;27;20084;-55
2021/03/01 18:51:04;;;;;;;7.93;3.47;;;17.50;66.30;;;;;;10581868;27;20048;-55
2021/03/01 18:56:05;;;;;;;7.35;3.40;;;17.50;66.00;;;;;;10592992;27;20089;-54
2021/03/01 19:01:07;;;;;;;9.75;4.13;;;17.50;66.10;;;;;;10599799;27;20066;-55
2021/03/01 19:06:08;;;;;;;7.10;3.80;;;17.50;66.30;;;;;;10593797;27;20058;-56
2021/03/01 19:11:09;;;;;;;6.45;4.00;;;17.50;66.10;;;;;;10580995;27;20114;-54
2021/03/01 19:16:09;;;;;;;8.38;3.70;;;17.50;66.00;;;;;;10581032;27;20076;-55
2021/03/01 19:21:10;;;;;;;6.47;3.20;;;17.50;66.00;;;;;;10575989;27;20035;-56
2021/03/01 19:26:11;;;;;;;6.95;3.78;;;17.50;66.20;;;;;;10578884;27;20563;-54
2021/03/01 19:31:12;;;;;;;9.13;3.80;;;17.50;66.10;;;;;;10597104;27;20063;-56
2021/03/01 19:36:12;;;;;;;8.05;3.65;;;17.50;65.70;;;;;;10593753;27;20102;-56
2021/03/01 19:41:13;;;;;;;8.48;3.55;;;17.40;65.80;;;;;;10595522;27;20035;-55
2021/03/01 19:46:14;;;;;;;9.52;4.18;;;17.40;65.80;;;;;;10594737;27;20027;-56
2021/03/01 19:51:14;;;;;;;6.40;3.28;;;17.40;65.70;;;;;;10608935;27;20063;-56
2021/03/01 19:56:15;;;;;;;5.70;3.42;;;17.40;65.70;;;;;;10578577;28;20483;-55
2021/03/01 20:01:16;;;;;;;7.93;2.80;;;17.40;65.80;;;;;;10604551;27;20051;-56
2021/03/01 20:06:17;;;;;;;4.22;2.50;;;17.40;65.50;;;;;;10587388;27;20124;-56
2021/03/01 20:11:18;;;;;;;5.05;2.90;;;17.40;65.40;;;;;;10601161;27;20020;-56
2021/03/01 20:16:19;;;;;;;4.22;2.40;;;17.40;65.30;;;;;;10594598;27;20487;-56
2021/03/01 20:21:20;;;;;;;3.97;2.83;;;17.40;65.90;;;;;;10584155;28;20479;-56
2021/03/01 20:26:21;;;;;;;5.72;2.65;;;17.40;65.50;;;;;;10586102;28;20082;-58
2021/03/01 20:31:21;;;;;;;8.70;3.13;;;17.50;65.30;;;;;;10573170;28;20074;-57
2021/03/01 20:36:22;;;;;;;5.63;2.75;;;17.50;65.20;;;;;;10597675;28;20046;-56
2021/03/01 20:41:24;;;;;;;4.75;2.72;;;17.50;65.00;;;;;;10591321;28;20062;-56
2021/03/01 20:46:25;;;;;;;5.50;2.50;;;17.50;64.80;;;;;;10606873;28;20475;-56
2021/03/01 20:51:26;;;;;;;5.13;2.63;;;17.50;64.60;;;;;;10588564;28;20039;-58
2021/03/01 20:56:26;;;;;;;5.82;2.60;;;17.60;64.50;;;;;;10599171;28;20024;-57
2021/03/01 21:01:27;;;;;;;5.30;2.42;;;17.60;64.40;;;;;;10588242;28;20106;-56
2021/03/01 21:06:28;;;;;;;5.80;2.78;;;17.60;64.20;;;;;;10580176;28;20027;-55
2021/03/01 21:11:28;;;;;;;4.13;2.45;;;17.60;64.10;;;;;;10571586;28;20304;-55
2021/03/01 21:16:30;;;;;;;5.13;2.35;;;17.60;63.90;;;;;;10621953;27;20023;-57
2021/03/01 21:21:34;;;;;;;4.65;2.47;;;17.60;63.70;;;;;;10593867;27;20395;-57
2021/03/01 21:26:47;;;;;;;5.28;3.28;;;17.60;63.60;;;;;;10586738;28;20050;-55
2021/03/01 21:31:51;;;;;;;3.83;2.45;;;17.70;63.50;;;;;;10604695;27;20031;-56
2021/03/01 21:36:55;;;;;;;4.88;2.53;;;17.70;63.50;;;;;;10628752;27;20031;-57
2021/03/01 21:41:56;;;;;;;4.90;2.30;;;17.70;63.30;;;;;;10608332;27;20035;-57
2021/03/01 21:47:03;;;;;;;4.72;2.67;;;17.70;63.20;;;;;;10585686;28;20480;-57
2021/03/01 21:52:06;;;;;;;4.43;2.10;;;17.70;63.00;;;;;;10592327;27;20038;-57
2021/03/01 21:57:07;;;;;;;3.65;2.42;;;17.70;63.00;;;;;;10618312;27;20096;-57
2021/03/01 22:02:08;;;;;;;4.10;2.50;;;17.70;62.90;;;;;;10591079;27;20110;-57
2021/03/01 22:07:09;;;;;;;5.28;2.30;;;17.70;62.90;;;;;;10569698;28;20039;-56
2021/03/01 22:12:11;;;;;;;3.67;1.83;;;17.70;62.80;;;;;;10606528;27;20551;-57
2021/03/01 22:17:11;;;;;;;3.88;2.45;;;17.70;62.70;;;;;;10627269;27;20041;-56
2021/03/01 22:22:13;;;;;;;4.38;2.53;;;17.70;62.50;;;;;;10625145;27;20554;-56
2021/03/01 22:27:27;;;;;;;4.22;2.17;;;17.70;62.50;;;;;;10607776;27;20043;-56
2021/03/01 22:32:31;;;;;;;4.53;2.38;;;17.70;62.40;;;;;;10583967;27;20034;-57
2021/03/01 22:37:34;;;;;;;4.50;2.15;;;17.70;62.40;;;;;;10608598;27;20039;-55
2021/03/01 22:42:37;;;;;;;5.28;2.25;;;17.70;62.30;;;;;;10581305;28;20476;-57
2021/03/01 22:47:40;;;;;;;6.10;2.60;;;17.70;62.20;;;;;;10583399;28;20033;-56
2021/03/01 22:52:42;;;;;;;4.45;2.38;;;17.80;62.20;;;;;;10609291;27;20106;-56
2021/03/01 22:57:46;;;;;;;2.92;1.80;;;17.70;62.00;;;;;;10592723;27;20020;-57
2021/03/01 23:02:47;;;;;;;3.45;2.28;;;17.80;62.00;;;;;;10574130;27;20490;-57
2021/03/01 23:07:48;;;;;;;4.10;2.30;;;17.80;62.00;;;;;;10582539;28;20110;-57
2021/03/01 23:12:48;;;;;;;4.35;2.50;;;17.80;61.90;;;;;;10599065;27;20387;-58
2021/03/01 23:17:52;;;;;;;3.03;1.70;;;17.70;61.80;;;;;;10597679;27;20111;-57
2021/03/01 23:22:56;;;;;;;4.43;2.20;;;17.80;61.90;;;;;;10581955;28;20031;-57
2021/03/01 23:27:56;;;;;;;4.30;2.20;;;17.80;61.80;;;;;;10608860;27;20135;-57
2021/03/01 23:32:58;;;;;;;3.25;2.13;;;17.80;61.70;;;;;;10623366;27;20113;-56
2021/03/01 23:38:02;;;;;;;3.58;2.10;;;17.80;61.60;;;;;;10605231;27;20113;-57
2021/03/01 23:43:03;;;;;;;2.97;1.90;;;17.80;61.60;;;;;;10587212;27;20494;-57
2021/03/01 23:48:05;;;;;;;3.10;1.98;;;17.80;61.60;;;;;;10562831;28;20028;-57
2021/03/01 23:53:11;;;;;;;3.80;2.38;;;17.80;61.50;;;;;;10598338;27;20035;-57
2021/03/01 23:58:12;;;;;;;3.92;2.08;;;17.80;61.50;;;;;;10587343;27;20020;-56
